Creek Data

    Home     View Charts     View Raw Data     Messages

ID Distance Battery Voltage Battery Current Internal Temp Internal Humidity External Temp Solar Input rssi snr Time Stamp Record
65514 15.3 3.90 0 88 43 70 5.1 -75 8 02/06/2026 02:00 PM 48306
65513 15.3 4.01 9 86 43 70 5.1 -75 8 02/06/2026 01:45 PM 48305
65512 15.2 4.11 9 83 44 69 5.1 -75 8 02/06/2026 01:30 PM 48304
65511 15.2 3.90 9 80 45 67 5.1 -75 8 02/06/2026 01:15 PM 48303
65510 15.2 3.90 0 81 43 68 5.1 -75 8 02/06/2026 01:00 PM 48302
65509 15.2 4.10 8 79 44 67 5.1 -75 7 02/06/2026 12:45 PM 48301
65508 15.2 3.99 9 76 44 67 5.1 -75 8 02/06/2026 12:30 PM 48300
65507 15.2 3.90 9 73 46 64 5.1 -75 8 02/06/2026 12:15 PM 48299
65506 15.2 3.94 9 73 45 66 5.1 -76 7 02/06/2026 12:00 PM 48298
65505 15.2 4.10 9 72 45 65 5.1 -76 8 02/06/2026 11:45 AM 48297
65504 15.2 3.91 9 72 44 65 5.1 -76 8 02/06/2026 11:30 AM 48296
65503 15.3 3.90 9 71 43 62 5.1 -76 8 02/06/2026 11:15 AM 48295
65502 15.3 3.89 9 70 43 67 5.1 -76 8 02/06/2026 11:00 AM 48294
65501 15.2 3.89 0 66 44 62 5.1 -76 8 02/06/2026 10:45 AM 48293
65500 15.2 3.89 10 63 44 61 5.1 -76 8 02/06/2026 10:30 AM 48292
65499 15.2 3.93 10 60 45 60 5.1 -74 8 02/06/2026 10:15 AM 48291
65498 15.2 4.10 10 58 45 58 5.1 -75 8 02/06/2026 10:00 AM 48290
65497 15.1 3.89 10 56 46 57 5.1 -75 7 02/06/2026 09:45 AM 48289
65496 15.1 3.89 10 54 46 55 5.1 -74 8 02/06/2026 09:30 AM 48288
65495 15.1 4.10 10 53 46 54 5.1 -75 8 02/06/2026 09:15 AM 48287
65494 15.1 3.89 10 50 46 52 5.1 -90 7 02/06/2026 09:00 AM 48286
65493 15.0 3.89 6 48 47 51 5.1 -81 7 02/06/2026 08:45 AM 48285
65492 15.0 4.13 83 46 47 48 4.5 -81 6 02/06/2026 08:30 AM 48284
65491 15.0 4.01 31 44 48 47 4.5 -82 7 02/06/2026 08:15 AM 48283
65490 15.0 3.97 21 43 49 44 4.5 -82 8 02/06/2026 08:00 AM 48282